createdAt,value
2022-10-04T00:10:01.570Z,1135.99841
2022-10-04T00:25:03.891Z,976.15045
2022-10-04T00:40:06.227Z,737.27643
2022-10-04T00:55:08.482Z,511.8728
2022-10-04T01:10:10.930Z,235.28189
2022-10-04T01:25:13.225Z,88.0062
2022-10-04T01:40:15.842Z,10.77627
2022-10-04T01:55:18.130Z,0.89802
2022-10-04T02:10:20.372Z,0
2022-10-04T02:25:23.345Z,0
2022-10-04T02:40:25.851Z,0
2022-10-04T02:55:28.147Z,0
2022-10-04T03:10:30.508Z,0
2022-10-04T03:25:32.846Z,0
2022-10-04T03:40:35.167Z,0
2022-10-04T03:55:37.561Z,0
2022-10-04T04:10:39.836Z,0
2022-10-04T04:25:42.131Z,0
2022-10-04T04:40:44.454Z,0
2022-10-04T04:56:02.397Z,0
2022-10-04T05:11:05.600Z,0
2022-10-04T05:26:07.787Z,0
2022-10-04T05:41:09.967Z,0
2022-10-04T05:56:12.211Z,0
2022-10-04T06:11:14.734Z,0
2022-10-04T06:26:17.069Z,0
2022-10-04T06:41:19.375Z,0
2022-10-04T06:56:21.669Z,0
2022-10-04T07:11:23.908Z,0
2022-10-04T07:26:26.388Z,0
2022-10-04T07:41:28.816Z,0
2022-10-04T07:56:31.111Z,0
2022-10-04T08:11:33.391Z,0
2022-10-04T08:26:35.859Z,0
2022-10-04T08:41:38.130Z,0
2022-10-04T08:56:40.646Z,0
2022-10-04T09:11:43.350Z,0
2022-10-04T09:26:46.119Z,0
2022-10-04T09:41:48.875Z,0
2022-10-04T09:56:51.208Z,0
2022-10-04T10:11:53.475Z,0
2022-10-04T10:26:55.695Z,0
2022-10-04T10:41:58.022Z,0
2022-10-04T10:57:00.326Z,0
2022-10-04T11:12:02.633Z,0
2022-10-04T11:27:04.949Z,0
2022-10-04T11:42:07.279Z,0
2022-10-04T11:57:09.589Z,0
2022-10-04T12:12:11.985Z,0
2022-10-04T12:27:14.298Z,0
2022-10-04T12:42:16.570Z,0
2022-10-04T12:57:18.892Z,0
2022-10-04T13:12:21.192Z,0
2022-10-04T13:27:23.529Z,5.38813
2022-10-04T13:42:25.851Z,57.47344
2022-10-04T13:57:28.241Z,103.27258
2022-10-04T14:12:30.511Z,405.00815
2022-10-04T14:27:33.039Z,492.1163
2022-10-04T14:42:35.377Z,618.73749
2022-10-04T14:57:37.674Z,1859.80457
2022-10-04T15:12:58.413Z,3760.91821
2022-10-04T15:28:11.543Z,12631.58398
2022-10-04T15:43:13.947Z,10249.13086
2022-10-04T15:58:16.263Z,16989.6875
2022-10-04T16:13:18.545Z,7608.04639
2022-10-04T16:28:20.939Z,5211.22461
2022-10-04T16:43:23.439Z,5216.6123
2022-10-04T16:58:25.738Z,13016.83594
2022-10-04T17:13:28.133Z,6103.85889
2022-10-04T17:28:30.708Z,5692.56445
2022-10-04T17:43:33.122Z,5489.61133
2022-10-04T17:58:35.614Z,5551.57471
2022-10-04T18:13:37.892Z,5561.45312
2022-10-04T18:28:40.225Z,5435.72998
2022-10-04T18:43:42.549Z,5472.54883
2022-10-04T18:58:45.101Z,5500.3877
2022-10-04T19:13:47.437Z,5479.73291
2022-10-04T19:28:49.767Z,5556.96289
2022-10-04T19:43:52.082Z,5692.56445
2022-10-04T19:58:54.390Z,5800.32715
2022-10-04T20:13:56.715Z,6014.95459
2022-10-04T20:28:59.004Z,6057.16162
2022-10-04T20:44:01.410Z,5776.08057
2022-10-04T20:59:03.643Z,6023.93457
2022-10-04T21:14:06.006Z,5726.68945
2022-10-04T21:29:08.451Z,5344.13184
2022-10-04T21:44:10.758Z,5402.50342
2022-10-04T21:59:13.091Z,4920.26514
2022-10-04T22:14:15.387Z,4844.83105
2022-10-04T22:29:17.813Z,5032.51807
2022-10-04T22:44:20.102Z,4566.44434
2022-10-04T22:59:22.426Z,3944.11475
2022-10-04T23:14:24.762Z,4214.41943
2022-10-04T23:29:27.259Z,3718.71118
2022-10-04T23:44:29.501Z,1838.25195
2022-10-04T23:59:31.867Z,1340.74756
